Elwood, IN

2:23 AM EDT on August 22, 2014 (GMT -0400)
Anderson Municipal-Darlington | Change Station
CLOSE
Current Station
Airport
Location: Anderson,
Elevation: 919 ft
Nearby Weather Stations

Elev 919 ft 40.11 °N, 85.61 °W | Updated 11 hours ago

Thunderstorm
Thunderstorm
73 °F
Feels Like 73 °F
N
5
Wind Variable Wind from SW
Gusts 7 mph

Today
High -- | Low -- °F
--% Chance of Precip.
Yesterday
High -- | Low -- °F
Precip. -- in
7:01 AM 8:30 PM
Waning Crescent, 10% visible
Pressure 30.05 in
Visibility 10.0 miles
Clouds Overcast 1100 ft
Dew Point 72 °F
Humidity 94%
Rainfall 0.00 in
Snow Depth Not available.
UV 3 out of 12
Pollen 9.30 out of 12
Ozone Good
PM2.5 Good
Flu Activity Not available.
METAR KAID 211855Z 15009KT 10SM OVC011 24/22 A3005

More Conditions Fewer Conditions

Pressure 30.05 in
Visibility 10.0 miles
Clouds Overcast 1100 ft
Dew Point 72 °F
Humidity 94%
Rainfall 0.00 in
Snow Depth Not available.
UV 3 out of 12
Pollen 9.30 out of 12
Ozone Good
PM2.5 Good
Flu Activity Not available.
METAR KAID 211855Z 15009KT 10SM OVC011 24/22 A3005

More Conditions Fewer Conditions

10-Day Weather Forecast

Almanac

Astronomy

Aug. 22, 2014 Rise Set
Actual Time 7:01 AM EDT 8:30 PM EDT
Civil Twilight 6:32 AM EDT 8:58 PM EDT
Nautical Twilight 5:58 AM EDT 9:33 PM EDT
Astronomical Twilight 5:21 AM EDT 10:09 PM EDT
Moon 4:23 AM EDT 6:38 PM EDT
Length of Visible Light 14h 26m
Length of Day
13h 29m
Tomorrow will be 2m 27s shorter.
Waning Crescent, 10% of the Moon is Illuminated
Today
Waning Crescent
Aug 25
New
Sep 2
First Quarter
Sep 8
Full
Sep 15
Last Quarter

Today's Extremes

State Highs State Lows

Community

WunderPhotos

Upload Photos

1,746,131 photos uploaded!

Nearby

Air Quality

  Air Quality AQ Index Pollutant
Yesterday Good
PM10
Yesterday Good
OZONE
Current Good
PM2.5
Current Good
OZONE
Friday Moderate
PM2.5
Friday Good
OZONE

Snow Depth

Station Depth Elevation
No new snow has been reported.

Earthquake Activity

City Distance Mag. Time & Date
No recent earthquake activity has been reported nearby.
Minimum magnitude displayed is 2.5.

Coastal Water Temperatures

Place Temperature
No Stations Reporting

Nearby Weather Stations